createdAt,value
2019-04-14T00:01:28.336Z,6.40
2019-04-14T00:04:14.647Z,6.40
2019-04-14T00:06:46.306Z,6.40
2019-04-14T00:09:20.552Z,6.40
2019-04-14T00:11:51.213Z,6.30
2019-04-14T00:14:22.899Z,6.20
2019-04-14T00:16:53.706Z,6.20
2019-04-14T00:19:24.200Z,6.10
2019-04-14T00:21:54.788Z,6.10
2019-04-14T00:24:25.294Z,6.10
2019-04-14T00:26:57.268Z,6.10
2019-04-14T00:29:28.447Z,6.10
2019-04-14T00:31:59.263Z,6.10
2019-04-14T00:34:36.050Z,6.10
2019-04-14T00:37:25.652Z,6.00
2019-04-14T00:39:59.811Z,6.10
2019-04-14T00:42:38.839Z,6.10
2019-04-14T00:45:38.333Z,6.10
2019-04-14T00:48:11.181Z,6.10
2019-04-14T00:50:38.808Z,6.00
2019-04-14T00:53:09.862Z,6.00
2019-04-14T00:55:40.520Z,5.90
2019-04-14T00:58:11.154Z,5.90
2019-04-14T01:00:42.978Z,5.80
2019-04-14T01:03:13.569Z,5.80
2019-04-14T01:05:44.164Z,5.80
2019-04-14T01:08:16.242Z,5.80
2019-04-14T01:10:47.651Z,5.80
2019-04-14T01:13:18.122Z,5.80
2019-04-14T01:15:58.629Z,5.70
2019-04-14T01:18:21.363Z,5.80
2019-04-14T01:21:11.028Z,5.80
2019-04-14T01:23:43.347Z,5.80
2019-04-14T01:26:13.955Z,5.80
2019-04-14T01:28:44.507Z,5.80
2019-04-14T01:31:16.142Z,5.80
2019-04-14T01:33:46.987Z,5.70
2019-04-14T01:36:19.185Z,5.70
2019-04-14T01:38:51.277Z,5.70
2019-04-14T01:41:22.193Z,5.60
2019-04-14T01:43:53.796Z,5.70
2019-04-14T01:46:27.998Z,5.60
2019-04-14T01:48:56.838Z,5.60
2019-04-14T01:51:46.672Z,5.60
2019-04-14T01:54:35.042Z,5.60
2019-04-14T01:57:24.276Z,5.60
2019-04-14T01:59:55.088Z,5.60
2019-04-14T02:02:27.055Z,5.60
2019-04-14T02:04:57.903Z,5.70
2019-04-14T02:07:29.657Z,5.60
2019-04-14T02:10:00.346Z,5.50
2019-04-14T02:12:30.826Z,5.50
2019-04-14T02:15:02.759Z,5.40
2019-04-14T02:17:33.422Z,5.40
2019-04-14T02:20:04.072Z,5.40
2019-04-14T02:22:35.566Z,5.40
2019-04-14T02:25:07.666Z,5.30
2019-04-14T02:27:38.465Z,5.30
2019-04-14T02:30:12.907Z,5.30
2019-04-14T02:33:17.753Z,5.40
2019-04-14T02:40:55.540Z,5.30
2019-04-14T02:43:23.666Z,5.30
2019-04-14T02:45:55.841Z,5.20
2019-04-14T02:50:56.252Z,5.10
2019-04-14T02:53:23.987Z,5.00
2019-04-14T02:56:08.248Z,4.90
2019-04-14T02:58:38.656Z,4.90
2019-04-14T03:01:07.574Z,4.90
2019-04-14T03:06:21.641Z,4.80
2019-04-14T03:08:47.642Z,4.90
2019-04-14T03:11:09.406Z,4.80
2019-04-14T03:13:45.647Z,4.80
2019-04-14T03:19:27.534Z,4.50
2019-04-14T03:22:07.186Z,4.50
2019-04-14T03:24:44.004Z,4.40
2019-04-14T03:27:40.341Z,4.30
2019-04-14T03:38:12.760Z,4.20
2019-04-14T03:40:39.650Z,4.10
2019-04-14T03:43:19.643Z,4.20
2019-04-14T03:45:54.225Z,4.20
2019-04-14T03:50:56.510Z,4.00
2019-04-14T03:53:26.279Z,4.10
2019-04-14T03:56:14.002Z,4.00
2019-04-14T03:58:42.106Z,4.10
2019-04-14T04:01:12.726Z,4.10
2019-04-14T04:03:43.588Z,4.10
2019-04-14T04:06:14.133Z,4.10
2019-04-14T04:08:44.618Z,4.10
2019-04-14T04:11:15.377Z,4.10
2019-04-14T04:13:45.937Z,4.10
2019-04-14T04:16:20.192Z,4.10
2019-04-14T04:18:58.863Z,4.10
2019-04-14T04:21:29.182Z,4.10
2019-04-14T04:24:19.231Z,4.20
2019-04-14T04:27:11.577Z,4.10
2019-04-14T04:30:01.705Z,4.20
2019-04-14T04:32:53.738Z,4.10
2019-04-14T04:35:52.375Z,4.10
2019-04-14T04:38:37.731Z,4.10
2019-04-14T04:41:08.491Z,4.10
2019-04-14T04:43:38.925Z,4.00
2019-04-14T04:46:09.494Z,4.10
2019-04-14T04:48:39.965Z,4.10
2019-04-14T04:51:11.685Z,4.10
2019-04-14T04:53:42.590Z,4.10
2019-04-14T04:56:14.294Z,4.10
2019-04-14T04:58:45.642Z,4.10
2019-04-14T05:01:16.719Z,4.20
2019-04-14T05:03:47.362Z,4.20
2019-04-14T05:07:10.342Z,4.20
2019-04-14T05:10:13.097Z,4.30
2019-04-14T05:12:47.959Z,4.30
2019-04-14T05:15:40.276Z,4.40
2019-04-14T05:18:22.341Z,4.50
2019-04-14T05:20:53.344Z,4.60
2019-04-14T05:23:23.985Z,4.70
2019-04-14T05:25:55.963Z,4.90
2019-04-14T05:28:27.042Z,5.00
2019-04-14T05:30:57.450Z,5.10
2019-04-14T05:33:29.248Z,5.10
2019-04-14T05:36:00.242Z,5.10
2019-04-14T05:38:32.708Z,5.10
2019-04-14T05:41:03.069Z,5.20
2019-04-14T05:43:41.579Z,5.40
2019-04-14T05:46:05.951Z,5.40
2019-04-14T05:48:36.483Z,5.50
2019-04-14T05:51:06.977Z,5.60
2019-04-14T05:53:37.611Z,5.70
2019-04-14T05:56:08.068Z,5.80
2019-04-14T05:58:38.511Z,5.90
2019-04-14T06:01:11.329Z,5.90
2019-04-14T06:03:43.148Z,6.00
2019-04-14T06:06:13.697Z,6.00
2019-04-14T06:08:44.205Z,6.10
2019-04-14T06:11:15.013Z,6.20
2019-04-14T06:13:45.515Z,6.30
2019-04-14T06:16:16.523Z,6.30
2019-04-14T06:18:46.987Z,6.20
2019-04-14T06:21:17.713Z,6.30
2019-04-14T06:23:48.115Z,6.50
2019-04-14T06:26:18.644Z,6.70
2019-04-14T06:28:49.174Z,6.80
2019-04-14T06:31:47.422Z,6.80
2019-04-14T06:34:28.921Z,6.90
2019-04-14T06:37:07.741Z,6.90
2019-04-14T06:39:41.757Z,7.00
2019-04-14T06:42:12.492Z,7.10
2019-04-14T06:44:42.928Z,7.20
2019-04-14T06:47:13.750Z,7.20
2019-04-14T06:49:49.287Z,7.20
2019-04-14T06:52:16.382Z,7.30
2019-04-14T06:54:46.824Z,7.40
2019-04-14T06:57:17.400Z,7.60
2019-04-14T06:59:48.054Z,7.60
2019-04-14T07:02:18.670Z,7.60
2019-04-14T07:04:49.236Z,7.70
2019-04-14T07:07:19.746Z,7.80
2019-04-14T07:09:51.399Z,7.90
2019-04-14T07:12:22.857Z,8.00
2019-04-14T07:14:53.441Z,8.00
2019-04-14T07:17:23.825Z,8.10
2019-04-14T07:20:01.778Z,8.10
2019-04-14T07:22:26.569Z,8.20
2019-04-14T07:24:57.220Z,8.20
2019-04-14T07:27:27.789Z,8.30
2019-04-14T07:30:09.037Z,8.40
2019-04-14T07:33:05.341Z,8.50
2019-04-14T07:35:57.513Z,8.70
2019-04-14T07:38:46.993Z,8.70
2019-04-14T07:41:42.405Z,8.70
2019-04-14T07:44:22.871Z,8.70
2019-04-14T07:47:12.666Z,8.90
2019-04-14T07:50:14.723Z,9.00
2019-04-14T07:53:11.161Z,9.20
2019-04-14T07:56:03.313Z,9.10
2019-04-14T07:58:51.288Z,9.30
2019-04-14T08:01:32.537Z,9.40
2019-04-14T08:04:20.272Z,9.50
2019-04-14T08:06:52.939Z,9.50
2019-04-14T08:09:23.386Z,9.50
2019-04-14T08:11:53.873Z,9.60
2019-04-14T08:14:24.724Z,9.70
2019-04-14T08:16:55.208Z,9.70
2019-04-14T08:19:25.994Z,9.70
2019-04-14T08:21:56.558Z,9.70
2019-04-14T08:24:27.260Z,9.70
2019-04-14T08:26:57.639Z,9.70
2019-04-14T08:29:28.130Z,9.70
2019-04-14T08:31:58.947Z,9.80
2019-04-14T08:34:29.430Z,9.80
2019-04-14T08:37:00.160Z,9.90
2019-04-14T08:39:30.740Z,9.90
2019-04-14T08:42:11.285Z,9.90
2019-04-14T08:44:43.982Z,9.90
2019-04-14T08:47:29.270Z,9.90
2019-04-14T08:50:18.784Z,9.90
2019-04-14T08:52:57.239Z,10.00
2019-04-14T08:56:08.144Z,10.10
2019-04-14T08:58:57.525Z,10.20
2019-04-14T09:01:34.863Z,10.20
2019-04-14T09:04:17.613Z,10.20
2019-04-14T09:06:59.437Z,10.30
2019-04-14T09:09:42.303Z,10.30
2019-04-14T09:12:16.291Z,10.50
2019-04-14T09:14:56.859Z,10.60
2019-04-14T09:17:19.084Z,10.60
2019-04-14T09:19:49.682Z,10.70
2019-04-14T09:22:20.393Z,10.70
2019-04-14T09:24:50.952Z,10.60
2019-04-14T09:27:21.388Z,10.60
2019-04-14T09:29:52.566Z,10.60
2019-04-14T09:32:23.459Z,10.70
2019-04-14T09:34:54.425Z,10.70
2019-04-14T09:37:24.880Z,10.80
2019-04-14T09:39:55.486Z,10.80
2019-04-14T09:42:26.072Z,10.80
2019-04-14T09:44:56.772Z,10.90
2019-04-14T09:47:27.314Z,10.90
2019-04-14T09:49:58.071Z,10.90
2019-04-14T09:52:28.802Z,10.80
2019-04-14T09:54:59.592Z,10.80
2019-04-14T09:57:30.252Z,10.90
2019-04-14T10:00:01.061Z,10.80
2019-04-14T10:02:32.053Z,10.90
2019-04-14T10:05:02.607Z,11.00
2019-04-14T10:07:33.470Z,11.10
2019-04-14T10:10:04.027Z,11.30
2019-04-14T10:12:35.176Z,11.40
2019-04-14T10:15:06.447Z,11.40
2019-04-14T10:17:37.250Z,11.40
2019-04-14T10:20:07.717Z,11.50
2019-04-14T10:22:38.180Z,11.50
2019-04-14T10:25:08.799Z,11.60
2019-04-14T10:27:39.329Z,11.70
2019-04-14T10:30:11.183Z,11.70
2019-04-14T10:32:41.668Z,11.70
2019-04-14T10:35:12.647Z,11.70
2019-04-14T10:37:43.137Z,11.80
2019-04-14T10:40:13.578Z,11.80
2019-04-14T10:42:44.147Z,12.00
2019-04-14T10:45:18.198Z,12.10
2019-04-14T10:47:47.976Z,12.20
2019-04-14T10:50:30.272Z,12.20
2019-04-14T10:52:50.744Z,12.20
2019-04-14T10:55:21.326Z,12.30
2019-04-14T10:57:52.201Z,12.40
2019-04-14T11:00:22.665Z,12.50
2019-04-14T11:02:53.313Z,12.50
2019-04-14T11:05:25.070Z,12.60
2019-04-14T11:07:55.694Z,12.70
2019-04-14T11:10:26.268Z,12.80
2019-04-14T11:12:57.158Z,13.00
2019-04-14T11:15:27.621Z,13.00
2019-04-14T11:17:58.076Z,13.10
2019-04-14T11:20:28.930Z,13.20
2019-04-14T11:23:03.540Z,13.40
2019-04-14T11:25:31.574Z,13.50
2019-04-14T11:28:02.211Z,13.70
2019-04-14T11:30:32.821Z,13.80
2019-04-14T11:33:17.891Z,13.80
2019-04-14T11:35:59.785Z,13.90
2019-04-14T11:38:38.035Z,13.90
2019-04-14T11:41:12.147Z,14.20
2019-04-14T11:43:42.827Z,14.40
2019-04-14T11:46:13.572Z,14.50
2019-04-14T11:48:44.111Z,14.70
2019-04-14T11:51:14.555Z,14.90
2019-04-14T11:53:46.192Z,15.20
2019-04-14T11:56:16.637Z,15.60
2019-04-14T11:58:47.120Z,16.10
2019-04-14T12:01:51.304Z,16.70
2019-04-14T12:04:37.981Z,17.30
2019-04-14T12:07:42.835Z,18.10
2019-04-14T12:10:15.512Z,18.80
2019-04-14T12:12:46.294Z,19.40
2019-04-14T12:15:16.889Z,20.00
2019-04-14T12:17:47.549Z,20.70
2019-04-14T12:20:18.231Z,21.00
2019-04-14T12:22:48.923Z,21.50
2019-04-14T12:25:19.833Z,21.60
2019-04-14T12:27:51.307Z,22.00
2019-04-14T12:30:22.411Z,22.50
2019-04-14T12:32:52.977Z,22.80
2019-04-14T12:35:23.994Z,23.90
2019-04-14T12:37:54.559Z,25.30
2019-04-14T12:40:25.226Z,27.30
2019-04-14T12:43:08.972Z,28.60
2019-04-14T12:46:06.142Z,29.80
2019-04-14T12:48:53.670Z,31.10
2019-04-14T12:51:36.888Z,31.90
2019-04-14T12:54:07.715Z,32.90
2019-04-14T12:56:38.156Z,34.40
2019-04-14T12:59:18.058Z,34.80
2019-04-14T13:02:01.293Z,35.20
2019-04-14T13:04:31.740Z,35.20
2019-04-14T13:07:03.913Z,34.50
2019-04-14T13:09:34.825Z,35.20
2019-04-14T13:12:05.411Z,35.30
2019-04-14T13:14:36.247Z,34.90
2019-04-14T13:17:07.131Z,35.70
2019-04-14T13:19:37.885Z,36.30
2019-04-14T13:22:08.724Z,36.70
2019-04-14T13:24:39.289Z,37.00
2019-04-14T13:27:10.103Z,36.50
2019-04-14T13:29:40.736Z,36.70
2019-04-14T13:32:11.379Z,37.40
2019-04-14T13:34:42.399Z,36.90
2019-04-14T13:37:13.168Z,36.80
2019-04-14T13:39:43.637Z,38.20
2019-04-14T13:42:14.339Z,37.40
2019-04-14T13:44:44.842Z,35.40
2019-04-14T13:47:15.630Z,35.60
2019-04-14T13:49:46.174Z,35.60
2019-04-14T13:52:17.090Z,36.70
2019-04-14T13:54:48.015Z,36.70
2019-04-14T13:57:18.711Z,37.10
2019-04-14T13:59:49.748Z,37.30
2019-04-14T14:02:20.280Z,37.40
2019-04-14T14:04:51.070Z,37.00
2019-04-14T14:07:21.546Z,36.50
2019-04-14T14:09:52.540Z,36.10
2019-04-14T14:12:37.031Z,36.30
2019-04-14T14:15:19.324Z,36.60
2019-04-14T14:18:21.469Z,36.50
2019-04-14T14:21:11.268Z,36.00
2019-04-14T14:24:09.726Z,35.90
2019-04-14T14:26:41.079Z,35.70
2019-04-14T14:29:11.844Z,35.40
2019-04-14T14:31:42.367Z,34.50
2019-04-14T14:34:13.011Z,33.60
2019-04-14T14:36:43.583Z,33.60
2019-04-14T14:39:16.301Z,33.50
2019-04-14T14:41:46.911Z,34.30
2019-04-14T14:44:17.395Z,33.90
2019-04-14T14:46:59.673Z,33.50
2019-04-14T14:49:49.101Z,31.10
2019-04-14T14:52:20.827Z,29.90
2019-04-14T14:54:51.413Z,29.70
2019-04-14T14:57:22.023Z,30.50
2019-04-14T14:59:52.623Z,30.80
2019-04-14T15:02:23.350Z,30.80
2019-04-14T15:04:53.909Z,30.60
2019-04-14T15:07:24.673Z,30.60
2019-04-14T15:09:55.311Z,30.00
2019-04-14T15:12:25.897Z,28.70
2019-04-14T15:14:56.746Z,29.40
2019-04-14T15:17:28.503Z,27.90
2019-04-14T15:19:59.085Z,27.20
2019-04-14T15:22:29.615Z,27.10
2019-04-14T15:25:00.177Z,26.60
2019-04-14T15:27:30.726Z,27.70
2019-04-14T15:30:02.752Z,28.10
2019-04-14T15:32:34.574Z,27.50
2019-04-14T15:35:05.256Z,27.30
2019-04-14T15:37:35.897Z,27.00
2019-04-14T15:40:07.482Z,27.60
2019-04-14T15:42:38.218Z,28.40
2019-04-14T15:45:09.062Z,28.80
2019-04-14T15:47:40.688Z,28.10
2019-04-14T15:50:11.326Z,27.20
2019-04-14T15:52:42.600Z,25.90
2019-04-14T15:55:14.100Z,24.90
2019-04-14T15:58:12.626Z,24.30
2019-04-14T16:01:01.320Z,24.90
2019-04-14T16:04:02.833Z,24.40
2019-04-14T16:06:58.061Z,23.80
2019-04-14T16:09:40.555Z,22.60
2019-04-14T16:12:22.818Z,22.20
2019-04-14T16:15:08.895Z,21.70
2019-04-14T16:17:53.483Z,21.40
2019-04-14T16:20:32.280Z,21.40
2019-04-14T16:23:02.978Z,21.70
2019-04-14T16:25:51.847Z,21.30
2019-04-14T16:28:27.740Z,20.60
2019-04-14T16:31:15.983Z,20.20
2019-04-14T16:34:20.873Z,20.00
2019-04-14T16:36:51.805Z,19.70
2019-04-14T16:39:22.393Z,19.10
2019-04-14T16:41:53.005Z,18.90
2019-04-14T16:44:23.947Z,18.50
2019-04-14T16:46:54.777Z,18.00
2019-04-14T16:49:25.421Z,17.40
2019-04-14T16:51:59.415Z,17.00
2019-04-14T16:54:55.297Z,16.90
2019-04-14T16:57:44.770Z,16.60
2019-04-14T17:00:23.210Z,16.10
2019-04-14T17:02:54.066Z,15.60
2019-04-14T17:05:24.734Z,15.40
2019-04-14T17:07:56.371Z,15.20
2019-04-14T17:10:26.964Z,15.20
2019-04-14T17:12:59.126Z,15.20
2019-04-14T17:15:38.017Z,14.90
2019-04-14T17:18:18.614Z,14.70
2019-04-14T17:21:06.156Z,14.40
2019-04-14T17:24:02.521Z,14.10
2019-04-14T17:26:50.719Z,13.80
2019-04-14T17:29:29.748Z,13.90
2019-04-14T17:32:17.703Z,13.90
2019-04-14T17:35:16.180Z,13.70
2019-04-14T17:37:54.013Z,13.50
2019-04-14T17:40:42.775Z,13.20
2019-04-14T17:43:35.229Z,13.00
2019-04-14T17:46:23.519Z,12.90
2019-04-14T17:49:13.412Z,12.70
2019-04-14T17:52:03.022Z,12.70
2019-04-14T17:54:51.845Z,12.50
2019-04-14T17:57:40.473Z,12.30
2019-04-14T18:00:19.294Z,12.10
2019-04-14T18:02:56.337Z,12.00
2019-04-14T18:05:43.173Z,11.90
2019-04-14T18:08:35.777Z,11.90
2019-04-14T18:11:34.350Z,11.80
2019-04-14T18:14:23.728Z,11.70
2019-04-14T18:17:13.283Z,11.70
2019-04-14T18:20:05.819Z,11.70
2019-04-14T18:22:36.385Z,11.50
2019-04-14T18:25:07.655Z,11.30
2019-04-14T18:27:49.322Z,11.10
2019-04-14T18:30:27.266Z,11.10
2019-04-14T18:33:09.810Z,11.00
2019-04-14T18:35:59.534Z,11.00
2019-04-14T18:38:47.500Z,11.00
2019-04-14T18:41:39.730Z,11.00
2019-04-14T18:44:32.183Z,10.90
2019-04-14T18:47:20.537Z,10.90
2019-04-14T18:50:14.324Z,10.80
2019-04-14T18:53:06.942Z,10.60
2019-04-14T18:55:55.334Z,10.60
2019-04-14T18:58:57.602Z,10.80
2019-04-14T19:01:34.836Z,10.90
2019-04-14T19:04:05.635Z,10.80
2019-04-14T19:06:36.540Z,10.70
2019-04-14T19:09:08.141Z,10.70
2019-04-14T19:11:50.247Z,10.60
2019-04-14T19:14:25.340Z,10.60
2019-04-14T19:17:03.298Z,10.40
2019-04-14T19:19:35.285Z,10.40
2019-04-14T19:22:06.174Z,10.40
2019-04-14T19:24:36.987Z,10.20
2019-04-14T19:27:07.747Z,10.20
2019-04-14T19:32:50.983Z,9.90
2019-04-14T19:35:23.561Z,9.90
2019-04-14T19:37:54.691Z,9.80
2019-04-14T19:40:25.717Z,9.80
2019-04-14T19:42:56.743Z,9.70
2019-04-14T19:45:27.435Z,9.70
2019-04-14T19:47:57.998Z,9.80
2019-04-14T19:50:29.052Z,9.60
2019-04-14T19:52:59.528Z,9.50
2019-04-14T19:55:30.829Z,9.40
2019-04-14T19:58:01.304Z,9.50
2019-04-14T20:00:31.936Z,9.50
2019-04-14T20:03:02.850Z,9.40
2019-04-14T20:05:33.730Z,9.30
2019-04-14T20:08:04.522Z,9.40
2019-04-14T20:10:35.451Z,9.40
2019-04-14T20:13:06.434Z,9.30
2019-04-14T20:15:43.444Z,9.30
2019-04-14T20:18:33.325Z,9.20
2019-04-14T20:21:26.338Z,9.10
2019-04-14T20:24:04.306Z,9.00
2019-04-14T20:27:08.881Z,9.10
2019-04-14T20:29:47.098Z,9.10
2019-04-14T20:32:35.547Z,9.00
2019-04-14T20:35:13.121Z,8.80
2019-04-14T20:37:43.955Z,8.70
2019-04-14T20:40:14.729Z,8.60
2019-04-14T20:42:45.417Z,8.60
2019-04-14T20:45:16.869Z,8.50
2019-04-14T20:47:47.641Z,8.30
2019-04-14T20:50:18.490Z,8.40
2019-04-14T20:52:49.066Z,8.40
2019-04-14T20:55:27.733Z,8.30
2019-04-14T20:57:58.448Z,8.20
2019-04-14T21:00:29.645Z,8.10
2019-04-14T21:03:17.710Z,8.10
2019-04-14T21:06:05.149Z,8.10
2019-04-14T21:08:58.401Z,8.00
2019-04-14T21:11:47.273Z,7.90
2019-04-14T21:14:28.656Z,8.10
2019-04-14T21:17:12.796Z,8.00
2019-04-14T21:19:48.269Z,7.80
2019-04-14T21:22:41.926Z,7.70
2019-04-14T21:25:40.924Z,7.80
2019-04-14T21:28:30.482Z,7.70
2019-04-14T21:31:20.380Z,7.60
2019-04-14T21:34:06.206Z,7.50
2019-04-14T21:36:54.775Z,7.50
2019-04-14T21:42:50.480Z,7.30
2019-04-14T21:45:21.642Z,7.30
2019-04-14T21:47:52.470Z,7.40
2019-04-14T21:50:23.520Z,7.20
2019-04-14T21:52:54.400Z,7.10
2019-04-14T21:55:25.236Z,7.10
2019-04-14T21:58:14.917Z,7.00
2019-04-14T22:02:09.921Z,7.00
2019-04-14T22:04:56.723Z,7.00
2019-04-14T22:08:01.430Z,6.90
2019-04-14T22:10:39.113Z,6.90
2019-04-14T22:13:09.984Z,6.80
2019-04-14T22:15:40.815Z,6.70
2019-04-14T22:18:11.365Z,6.70
2019-04-14T22:20:42.343Z,6.70
2019-04-14T22:23:13.935Z,6.60
2019-04-14T22:25:44.972Z,6.50
2019-04-14T22:28:15.589Z,6.50
2019-04-14T22:30:46.339Z,6.40
2019-04-14T22:33:17.009Z,6.40
2019-04-14T22:35:47.750Z,6.40
2019-04-14T22:38:18.253Z,6.30
2019-04-14T22:40:48.905Z,6.30
2019-04-14T22:43:19.516Z,6.30
2019-04-14T22:45:50.347Z,6.30
2019-04-14T22:48:20.760Z,6.20
2019-04-14T22:50:51.607Z,6.10
2019-04-14T22:53:22.329Z,6.10
2019-04-14T22:55:53.077Z,6.00
2019-04-14T22:58:23.718Z,5.90
2019-04-14T23:01:02.570Z,5.90
2019-04-14T23:03:50.892Z,5.90
2019-04-14T23:06:54.739Z,5.90
2019-04-14T23:09:53.096Z,5.80
2019-04-14T23:12:42.717Z,5.80
2019-04-14T23:15:30.964Z,5.90
2019-04-14T23:18:19.054Z,5.80
2019-04-14T23:20:55.103Z,5.60
2019-04-14T23:23:33.946Z,5.70
2019-04-14T23:26:05.114Z,5.60
2019-04-14T23:28:35.986Z,5.60
2019-04-14T23:31:06.648Z,5.60
2019-04-14T23:33:37.578Z,5.50
2019-04-14T23:36:08.698Z,5.50
2019-04-14T23:38:39.913Z,5.40
2019-04-14T23:41:10.662Z,5.40
2019-04-14T23:43:41.235Z,5.20
2019-04-14T23:46:11.744Z,5.30
2019-04-14T23:48:43.658Z,5.20
2019-04-14T23:51:14.125Z,5.20
2019-04-14T23:53:45.041Z,5.20
2019-04-14T23:56:15.837Z,5.20
2019-04-14T23:58:46.458Z,5.30
